Time;durP1;ratioP1;P1;durP2;ratioP2;P2;SDS_P1;SDS_P2;PMS_P1;PMS_P2;Temp;Humidity;BMP_temperature;BMP_pressure;BME280_temperature;BME280_humidity;BME280_pressure;Samples;Min_cycle;Max_cycle;Signal;HPM_P1;HPM_P2
2023/04/23 00:01:17;;;;;;;5.53;2.70;;;;;;;18.23;46.12;96809.59;5086557;28;20975;-70
2023/04/23 00:03:43;;;;;;;4.10;2.40;;;;;;;18.26;46.12;96807.34;5086681;28;20190;-69
2023/04/23 00:06:09;;;;;;;3.10;2.80;;;;;;;18.29;45.98;96815.88;5072216;28;20427;-70
2023/04/23 00:08:38;;;;;;;5.63;2.50;;;;;;;18.22;46.20;96814.09;5090440;28;20451;-69
2023/04/23 00:11:05;;;;;;;5.73;2.97;;;;;;;18.29;46.38;96808.75;5090044;28;20443;-67
2023/04/23 00:13:30;;;;;;;5.93;2.93;;;;;;;18.26;46.15;96802.06;5095498;28;20427;-70
2023/04/23 00:15:56;;;;;;;4.40;2.60;;;;;;;18.12;46.66;96808.44;5081530;28;20432;-69
2023/04/23 00:18:22;;;;;;;4.50;2.40;;;;;;;18.19;46.63;96809.22;5091328;28;20185;-70
2023/04/23 00:20:47;;;;;;;4.43;2.40;;;;;;;18.12;46.92;96813.72;5048095;28;20328;-70
2023/04/23 00:23:13;;;;;;;3.53;2.57;;;;;;;18.00;47.34;96812.75;5080916;28;20228;-70
2023/04/23 00:25:38;;;;;;;6.00;2.00;;;;;;;17.98;47.64;96817.44;5095727;28;20182;-70
2023/04/23 00:28:04;;;;;;;5.10;2.67;;;;;;;18.04;47.83;96817.44;5063028;28;20206;-70
2023/04/23 00:30:29;;;;;;;5.00;2.57;;;;;;;18.08;48.01;96809.88;5074727;28;20235;-69
2023/04/23 00:32:54;;;;;;;7.00;3.00;;;;;;;18.09;48.31;96816.78;5092818;28;20681;-69
2023/04/23 00:35:20;;;;;;;3.53;2.37;;;;;;;18.09;48.36;96806.19;5089259;28;20202;-70
2023/04/23 00:37:45;;;;;;;4.63;2.33;;;;;;;17.87;48.73;96817.06;5098610;28;20253;-71
2023/04/23 00:40:11;;;;;;;5.00;2.67;;;;;;;18.00;48.90;96818.06;5074423;28;20241;-70
2023/04/23 00:42:37;;;;;;;2.30;2.10;;;;;;;18.03;48.76;96828.22;5084438;28;20805;-70
2023/04/23 00:45:07;;;;;;;3.17;2.40;;;;;;;18.06;48.92;96836.59;5073206;28;20180;-70
2023/04/23 00:47:33;;;;;;;3.27;2.63;;;;;;;18.03;49.26;96828.22;5086929;28;20787;-69
2023/04/23 00:49:59;;;;;;;3.47;1.77;;;;;;;18.04;49.36;96828.03;5078921;28;20441;-69
2023/04/23 00:52:24;;;;;;;4.40;2.10;;;;;;;17.99;49.44;96835.00;5087619;28;20189;-70
2023/04/23 00:54:50;;;;;;;15.10;2.80;;;;;;;17.86;49.79;96835.78;5062728;28;20263;-69
2023/04/23 00:57:16;;;;;;;2.80;2.30;;;;;;;17.90;49.42;96840.47;5083877;28;20310;-69
2023/04/23 00:59:41;;;;;;;6.80;2.30;;;;;;;17.83;49.78;96837.03;5070499;28;20206;-71
2023/04/23 01:02:07;;;;;;;3.97;2.00;;;;;;;17.66;50.11;96842.75;5062864;28;20429;-70
2023/04/23 01:04:33;;;;;;;4.10;2.00;;;;;;;17.74;50.10;96839.09;5089484;28;20250;-69
2023/04/23 01:06:58;;;;;;;3.43;2.10;;;;;;;17.74;49.94;96832.97;5070773;28;20173;-70
2023/04/23 01:09:26;;;;;;;2.33;1.90;;;;;;;17.77;49.96;96832.53;5070951;28;20549;-70
2023/04/23 01:11:52;;;;;;;4.50;2.47;;;;;;;17.83;49.77;96842.34;5079844;28;20181;-70
2023/04/23 01:14:17;;;;;;;2.63;2.10;;;;;;;17.71;50.07;96849.28;5074432;28;21055;-70
2023/04/23 01:16:43;;;;;;;4.40;2.43;;;;;;;17.66;50.01;96832.16;5097091;28;20216;-69
2023/04/23 01:19:09;;;;;;;4.00;1.90;;;;;;;17.68;49.95;96837.28;5088775;28;20178;-69
2023/04/23 01:21:36;;;;;;;3.23;2.43;;;;;;;17.61;50.12;96837.28;5090295;28;20206;-69
2023/04/23 01:24:03;;;;;;;4.03;2.00;;;;;;;17.57;50.18;96844.00;5094307;28;20420;-68
2023/04/23 01:26:29;;;;;;;3.83;2.20;;;;;;;17.62;50.33;96843.38;5094777;28;20808;-69
2023/04/23 01:28:54;;;;;;;3.57;2.03;;;;;;;17.56;50.59;96847.66;5070131;28;20427;-68
2023/04/23 01:31:20;;;;;;;2.97;1.90;;;;;;;17.58;50.76;96856.22;5085181;28;20213;-70
2023/04/23 01:33:46;;;;;;;2.97;2.07;;;;;;;17.56;50.84;96846.88;5089309;28;20238;-70
2023/04/23 01:36:12;;;;;;;3.10;2.07;;;;;;;17.61;50.83;96850.53;5070609;28;20416;-70
2023/04/23 01:38:37;;;;;;;3.53;2.20;;;;;;;17.65;50.77;96851.72;5088654;28;20189;-70
2023/04/23 01:41:03;;;;;;;7.07;2.30;;;;;;;17.71;50.86;96862.53;5070113;28;20201;-70
2023/04/23 01:43:30;;;;;;;2.63;2.40;;;;;;;17.70;50.63;96858.25;5062778;28;20196;-70
2023/04/23 01:45:56;;;;;;;3.37;2.17;;;;;;;17.69;50.80;96856.63;5099895;28;20213;-69
2023/04/23 01:48:23;;;;;;;3.53;2.20;;;;;;;17.68;50.86;96857.63;5068668;28;20933;-70
2023/04/23 01:50:49;;;;;;;7.20;2.37;;;;;;;17.73;50.76;96855.19;5062944;28;20476;-70
2023/04/23 01:53:15;;;;;;;5.50;2.57;;;;;;;17.70;50.89;96850.31;5074636;28;20420;-70
2023/04/23 01:55:42;;;;;;;4.20;1.97;;;;;;;17.68;50.89;96862.94;5080901;28;20505;-70
2023/04/23 01:58:07;;;;;;;4.97;2.43;;;;;;;17.68;50.92;96860.28;5090377;28;20178;-69
2023/04/23 02:00:32;;;;;;;5.13;2.10;;;;;;;17.72;51.22;96856.22;5092317;28;20777;-70
2023/04/23 02:02:58;;;;;;;3.43;2.20;;;;;;;17.72;50.95;96854.38;5092085;28;20276;-70
2023/04/23 02:05:24;;;;;;;6.83;2.70;;;;;;;17.71;50.87;96843.97;5072985;28;20260;-70
2023/04/23 02:07:50;;;;;;;4.00;2.40;;;;;;;17.68;51.17;96855.00;5088665;28;20182;-70
2023/04/23 02:10:17;;;;;;;5.60;2.20;;;;;;;17.65;51.10;96875.56;5094488;28;20467;-69
2023/04/23 02:12:43;;;;;;;3.97;2.70;;;;;;;17.70;51.16;96882.09;5089540;28;20419;-70
2023/04/23 02:15:10;;;;;;;2.43;2.10;;;;;;;17.72;51.24;96882.72;5078787;28;20447;-70
2023/04/23 02:17:36;;;;;;;2.90;2.20;;;;;;;17.72;51.31;96882.72;5067802;28;20955;-70
2023/04/23 02:20:02;;;;;;;4.97;2.30;;;;;;;17.56;51.78;96883.97;5091755;28;20474;-70
2023/04/23 02:22:28;;;;;;;4.10;2.40;;;;;;;17.59;52.02;96889.66;5077417;28;21150;-70
2023/04/23 02:24:53;;;;;;;2.77;2.03;;;;;;;17.62;52.31;96885.78;5093051;28;20208;-70
2023/04/23 02:27:20;;;;;;;3.20;2.00;;;;;;;17.62;52.38;96883.97;5087332;28;20631;-70
2023/04/23 02:29:46;;;;;;;3.20;1.90;;;;;;;17.61;53.00;96873.53;5086528;28;20202;-71
2023/04/23 02:32:11;;;;;;;2.17;1.87;;;;;;;17.60;53.17;96875.41;5088714;28;21236;-70
2023/04/23 02:34:36;;;;;;;2.70;1.97;;;;;;;17.48;53.51;96877.84;5092624;28;20482;-70
2023/04/23 02:37:03;;;;;;;2.73;1.80;;;;;;;17.45;54.01;96882.72;5099630;28;20174;-69
2023/04/23 02:39:30;;;;;;;3.77;2.17;;;;;;;17.39;54.26;96872.97;5084737;28;20576;-71
2023/04/23 02:41:56;;;;;;;3.40;2.07;;;;;;;17.41;54.51;96876.19;5082735;28;20427;-71
2023/04/23 02:44:22;;;;;;;7.93;2.13;;;;;;;17.36;54.86;96874.16;5075813;28;20443;-71
2023/04/23 02:46:48;;;;;;;2.10;1.83;;;;;;;17.38;55.35;96861.53;5094979;28;20807;-69
2023/04/23 02:49:13;;;;;;;2.50;1.90;;;;;;;17.34;55.76;96866.44;5094902;28;20244;-70
2023/04/23 02:51:39;;;;;;;4.00;2.43;;;;;;;17.27;57.30;96872.75;5082680;28;20701;-70
2023/04/23 02:54:04;;;;;;;3.23;2.20;;;;;;;17.28;57.96;96867.22;5099334;28;20240;-69
2023/04/23 02:56:30;;;;;;;7.30;2.33;;;;;;;17.24;58.29;96875.78;5080267;28;20188;-69
2023/04/23 02:58:55;;;;;;;3.27;1.97;;;;;;;17.23;58.48;96884.75;5074682;28;20180;-70
2023/04/23 03:01:21;;;;;;;2.30;1.67;;;;;;;17.20;57.68;96883.34;5092855;28;20260;-70
2023/04/23 03:03:46;;;;;;;2.17;1.97;;;;;;;17.09;57.44;96890.03;5089203;28;20683;-69
2023/04/23 03:06:12;;;;;;;3.67;2.10;;;;;;;17.13;57.79;96885.16;5072447;28;20241;-70
2023/04/23 03:08:37;;;;;;;1.90;1.80;;;;;;;17.10;58.22;96881.06;5069796;28;20181;-70
2023/04/23 03:11:03;;;;;;;2.17;1.97;;;;;;;17.05;58.05;96872.94;5067569;28;20252;-70
2023/04/23 03:13:28;;;;;;;2.00;1.90;;;;;;;17.06;58.75;96882.50;5052139;28;20269;-70
2023/04/23 03:15:54;;;;;;;2.80;1.63;;;;;;;17.06;57.99;96884.31;5089130;28;20207;-70
2023/04/23 03:18:20;;;;;;;2.57;1.90;;;;;;;17.07;58.11;96883.31;5098780;28;21606;-70
2023/04/23 03:20:46;;;;;;;2.20;1.70;;;;;;;17.04;58.35;96880.03;5075894;28;20440;-69
2023/04/23 03:23:11;;;;;;;1.87;1.63;;;;;;;17.04;58.11;96873.94;5080913;28;20175;-70
2023/04/23 03:25:37;;;;;;;2.13;1.50;;;;;;;16.94;58.24;96871.69;5071969;28;20639;-69
2023/04/23 03:28:02;;;;;;;2.10;1.90;;;;;;;16.92;58.37;96872.88;5097330;28;20182;-69
2023/04/23 03:30:28;;;;;;;2.20;2.00;;;;;;;16.96;58.54;96874.97;5058192;28;20217;-69
2023/04/23 03:32:55;;;;;;;3.07;2.10;;;;;;;16.95;58.50;96868.03;5070414;28;20654;-68
2023/04/23 03:35:22;;;;;;;1.90;1.70;;;;;;;16.91;58.54;96860.66;5057146;28;20627;-69
2023/04/23 03:37:47;;;;;;;1.97;1.40;;;;;;;16.93;58.51;96869.22;5092712;28;20424;-69
2023/04/23 03:40:14;;;;;;;1.60;1.50;;;;;;;16.95;58.39;96868.03;5062211;28;20455;-69
2023/04/23 03:42:39;;;;;;;1.77;1.63;;;;;;;16.91;58.38;96865.97;5085007;28;20178;-70
2023/04/23 03:45:05;;;;;;;2.53;1.80;;;;;;;16.91;58.89;96860.66;5088474;28;20817;-69
2023/04/23 03:47:31;;;;;;;1.80;1.60;;;;;;;16.76;59.34;96856.34;5101923;28;20186;-68
2023/04/23 03:49:56;;;;;;;1.93;1.83;;;;;;;16.75;59.68;96857.38;5090099;28;20458;-69
2023/04/23 03:52:22;;;;;;;2.10;1.90;;;;;;;16.78;60.24;96864.09;5071944;28;20186;-69
2023/04/23 03:54:47;;;;;;;2.30;2.07;;;;;;;16.71;60.41;96872.84;5090217;28;20749;-68
2023/04/23 03:57:13;;;;;;;2.43;1.63;;;;;;;16.67;60.22;96879.53;5090018;28;20200;-69
2023/04/23 03:59:38;;;;;;;1.73;1.57;;;;;;;16.68;60.08;96881.16;5086186;28;20182;-70
2023/04/23 04:02:04;;;;;;;2.13;1.67;;;;;;;16.71;59.66;96886.06;5071467;28;20174;-69
2023/04/23 04:04:30;;;;;;;5.47;1.50;;;;;;;16.72;59.51;96890.34;5090450;28;20227;-70
2023/04/23 04:06:56;;;;;;;2.47;1.70;;;;;;;16.63;59.58;96880.97;5092363;28;20475;-69
2023/04/23 04:09:22;;;;;;;4.27;1.73;;;;;;;16.62;59.36;96879.34;5087109;28;20983;-69
2023/04/23 04:11:47;;;;;;;2.70;1.50;;;;;;;16.62;59.32;96883.78;5092616;28;20522;-68
2023/04/23 04:14:13;;;;;;;1.80;1.50;;;;;;;16.55;59.39;96881.94;5066194;28;20284;-69
2023/04/23 04:16:39;;;;;;;2.73;1.60;;;;;;;16.58;59.40;96883.38;5064556;28;20182;-70
2023/04/23 04:19:05;;;;;;;2.43;1.50;;;;;;;16.65;59.33;96883.41;5085660;28;20255;-70
2023/04/23 04:21:32;;;;;;;2.07;1.70;;;;;;;16.60;58.96;96886.66;5093507;28;21093;-69
2023/04/23 04:24:00;;;;;;;2.53;1.60;;;;;;;16.45;59.28;96880.69;5090371;28;20420;-70
2023/04/23 04:26:27;;;;;;;2.00;1.80;;;;;;;16.47;59.46;96881.31;5091550;28;20455;-70
2023/04/23 04:28:52;;;;;;;1.67;1.57;;;;;;;16.51;59.59;96882.53;5097732;28;20411;-69
2023/04/23 04:31:19;;;;;;;5.33;1.47;;;;;;;16.52;59.21;96889.44;5070223;28;20513;-70
2023/04/23 04:33:45;;;;;;;1.90;1.70;;;;;;;16.50;59.34;96886.19;5068323;28;20186;-70
2023/04/23 04:36:12;;;;;;;3.30;1.50;;;;;;;16.50;59.54;96886.19;5081181;28;20428;-70
2023/04/23 04:38:38;;;;;;;3.50;1.63;;;;;;;16.50;59.30;96892.28;5092760;28;20458;-70
2023/04/23 04:41:03;;;;;;;2.20;1.70;;;;;;;16.44;59.13;96887.81;5072104;28;20475;-69
2023/04/23 04:43:29;;;;;;;2.33;1.50;;;;;;;16.41;59.18;96889.00;5090646;28;20189;-70
2023/04/23 04:45:54;;;;;;;2.27;2.00;;;;;;;16.33;59.76;96889.19;5086394;28;20323;-70
2023/04/23 04:48:20;;;;;;;2.37;2.00;;;;;;;16.35;60.44;96884.50;5060471;28;20384;-69
2023/04/23 04:50:45;;;;;;;3.10;2.27;;;;;;;16.37;60.51;96873.72;5068806;28;20206;-70
2023/04/23 04:53:11;;;;;;;2.00;1.90;;;;;;;16.24;60.83;96888.53;5070569;28;20190;-69
2023/04/23 04:55:37;;;;;;;2.00;1.80;;;;;;;16.15;61.50;96897.63;5071895;28;20201;-70
2023/04/23 04:58:02;;;;;;;3.10;2.17;;;;;;;16.16;61.69;96893.97;5090281;28;20246;-69
2023/04/23 05:00:28;;;;;;;2.13;1.83;;;;;;;16.17;61.57;96879.75;5051462;28;20194;-70
2023/04/23 05:02:55;;;;;;;2.03;1.80;;;;;;;16.20;61.47;96878.53;5066777;28;20662;-69
2023/04/23 05:05:23;;;;;;;2.53;2.00;;;;;;;16.23;61.27;96881.59;5071731;28;20839;-70
2023/04/23 05:07:48;;;;;;;3.30;2.43;;;;;;;16.15;61.38;96884.41;5090490;28;20458;-69
2023/04/23 05:10:14;;;;;;;2.83;2.10;;;;;;;16.06;62.29;96889.03;5098196;28;20456;-70
2023/04/23 05:12:40;;;;;;;3.03;2.50;;;;;;;16.15;62.34;96888.88;5078323;28;20567;-70
2023/04/23 05:15:12;;;;;;;2.63;2.43;;;;;;;16.20;62.25;96886.47;5092241;28;20454;-71
2023/04/23 05:17:40;;;;;;;2.63;2.10;;;;;;;16.29;61.92;96885.28;5067698;28;20525;-70
2023/04/23 05:20:09;;;;;;;3.90;1.90;;;;;;;16.32;61.60;96887.53;5086079;28;21002;-70
2023/04/23 05:22:36;;;;;;;6.10;1.63;;;;;;;16.37;60.94;96879.84;5078722;28;20424;-69
2023/04/23 05:25:03;;;;;;;4.20;1.87;;;;;;;16.40;61.15;96871.50;5079562;28;20451;-69
2023/04/23 05:27:28;;;;;;;2.40;2.03;;;;;;;16.46;60.86;96888.41;5080072;28;20971;-70
2023/04/23 05:29:54;;;;;;;1.73;1.63;;;;;;;16.55;60.64;96891.69;5066237;28;20500;-69
2023/04/23 05:32:19;;;;;;;2.60;2.13;;;;;;;16.48;61.10;96893.53;5078405;28;20201;-70
2023/04/23 05:34:45;;;;;;;2.43;1.73;;;;;;;16.47;61.01;96891.88;5081011;28;20205;-70
2023/04/23 05:37:11;;;;;;;3.40;2.00;;;;;;;16.51;60.28;96891.28;5078165;28;20269;-70
2023/04/23 05:39:36;;;;;;;3.63;1.97;;;;;;;16.53;60.91;96891.06;5084902;28;20181;-68
2023/04/23 05:42:01;;;;;;;1.93;1.83;;;;;;;16.56;60.88;96890.69;5087020;28;20763;-70
2023/04/23 05:44:28;;;;;;;3.20;1.67;;;;;;;16.58;60.83;96889.47;5049888;28;20184;-70
2023/04/23 05:46:53;;;;;;;1.80;1.70;;;;;;;16.65;61.09;96884.19;5079202;28;20177;-71
2023/04/23 05:49:19;;;;;;;1.60;1.50;;;;;;;16.73;60.65;96884.03;5079982;28;20524;-71
2023/04/23 05:51:44;;;;;;;1.60;1.50;;;;;;;16.77;60.69;96886.25;5080913;28;20597;-70
2023/04/23 05:54:10;;;;;;;2.00;1.80;;;;;;;16.87;60.12;96892.81;5081286;28;20197;-69
2023/04/23 05:56:35;;;;;;;1.80;1.50;;;;;;;16.95;59.60;96883.09;5058834;28;20644;-69
2023/04/23 05:59:01;;;;;;;4.27;1.60;;;;;;;16.99;59.53;96882.50;5065475;28;20184;-70
2023/04/23 06:01:27;;;;;;;4.93;1.47;;;;;;;17.07;59.15;96883.31;5076416;28;20293;-71
2023/04/23 06:03:53;;;;;;;1.23;1.13;;;;;;;17.19;58.87;96892.28;5080644;28;20178;-71
2023/04/23 06:06:18;;;;;;;1.30;1.20;;;;;;;17.34;58.03;96887.63;5077207;28;20427;-70
2023/04/23 06:08:44;;;;;;;1.27;1.10;;;;;;;17.52;57.61;96888.03;5080023;28;20749;-71
2023/04/23 06:11:09;;;;;;;1.27;1.17;;;;;;;17.65;57.04;96888.03;5061876;28;20749;-70
2023/04/23 06:13:39;;;;;;;1.20;1.10;;;;;;;17.64;56.08;96897.00;5076341;28;20177;-69
2023/04/23 06:16:07;;;;;;;5.17;0.90;;;;;;;17.72;55.94;96894.13;5086914;28;20233;-70
2023/04/23 06:18:33;;;;;;;1.13;1.03;;;;;;;17.57;55.38;96897.00;5073306;28;20417;-69
2023/04/23 06:21:03;;;;;;;1.00;0.90;;;;;;;17.64;55.65;96897.78;5085165;28;20446;-70
2023/04/23 06:23:29;;;;;;;1.40;1.00;;;;;;;17.48;55.44;96896.38;5083155;28;20182;-70
2023/04/23 06:25:55;;;;;;;1.20;1.10;;;;;;;17.69;55.96;96899.03;5057516;28;20447;-70
2023/04/23 06:28:20;;;;;;;2.27;1.00;;;;;;;17.93;55.60;96887.78;5084534;28;20454;-70
2023/04/23 06:30:46;;;;;;;1.67;1.10;;;;;;;18.02;54.80;96882.31;5066061;28;20213;-69
2023/04/23 06:33:11;;;;;;;1.00;0.90;;;;;;;18.10;54.44;96885.50;5091322;28;20173;-69
2023/04/23 06:35:37;;;;;;;1.20;1.10;;;;;;;18.27;53.91;96885.06;5074997;28;20289;-68
2023/04/23 06:38:02;;;;;;;1.10;0.90;;;;;;;18.46;53.44;96882.56;5089125;28;20178;-69
2023/04/23 06:40:28;;;;;;;2.93;1.00;;;;;;;18.45;53.16;96876.44;5054854;28;20210;-69
2023/04/23 06:42:53;;;;;;;1.10;0.93;;;;;;;18.47;52.56;96878.84;5087668;28;20269;-69
2023/04/23 06:45:19;;;;;;;2.40;1.20;;;;;;;18.56;52.09;96870.47;5079960;28;20670;-68
2023/04/23 06:47:44;;;;;;;1.20;1.10;;;;;;;18.69;51.97;96868.75;5069211;28;20181;-70
2023/04/23 06:50:10;;;;;;;1.63;0.90;;;;;;;18.69;51.75;96871.41;5095238;28;20202;-70
2023/04/23 06:52:35;;;;;;;1.13;0.97;;;;;;;18.79;50.98;96866.44;5076612;28;20185;-70
2023/04/23 06:55:01;;;;;;;2.27;1.10;;;;;;;18.79;50.62;96866.44;5068587;28;20212;-70
2023/04/23 06:57:27;;;;;;;1.10;0.80;;;;;;;18.87;49.54;96868.88;5049147;28;20212;-70
2023/04/23 06:59:52;;;;;;;1.53;1.33;;;;;;;19.07;49.07;96862.63;5079193;28;20256;-69
2023/04/23 07:02:18;;;;;;;2.07;1.50;;;;;;;19.27;49.20;96856.38;5079295;28;20339;-70
2023/04/23 07:04:43;;;;;;;2.37;1.73;;;;;;;19.34;48.76;96857.13;5066279;28;20181;-70
2023/04/23 07:07:09;;;;;;;3.13;2.60;;;;;;;19.39;48.16;96853.81;5062042;28;20762;-69
2023/04/23 07:09:34;;;;;;;2.70;1.07;;;;;;;19.51;47.97;96851.28;5067394;28;20184;-69
2023/04/23 07:12:01;;;;;;;1.77;1.13;;;;;;;19.40;47.14;96850.97;5081932;28;20174;-69
2023/04/23 07:14:26;;;;;;;2.13;1.20;;;;;;;19.57;47.60;96853.88;5069427;28;20281;-70
2023/04/23 07:16:53;;;;;;;2.10;1.53;;;;;;;19.66;46.42;96849.06;5061607;28;22490;-69
2023/04/23 07:19:19;;;;;;;3.27;1.50;;;;;;;19.57;45.91;96861.03;5070060;28;20665;-71
2023/04/23 07:21:44;;;;;;;1.50;1.40;;;;;;;19.70;46.21;96854.78;5049317;28;20448;-70
2023/04/23 07:24:10;;;;;;;2.93;1.30;;;;;;;19.78;46.40;96846.53;5056629;28;20186;-69
2023/04/23 07:26:37;;;;;;;1.00;0.83;;;;;;;19.61;45.51;96840.97;5066554;28;20201;-68
2023/04/23 07:29:04;;;;;;;2.03;1.20;;;;;;;19.42;45.74;96842.78;5073967;28;20224;-70
2023/04/23 07:31:29;;;;;;;2.17;1.00;;;;;;;19.60;45.50;96844.66;5063660;28;20936;-69
2023/04/23 07:33:55;;;;;;;1.67;1.37;;;;;;;19.65;45.55;96839.50;5087832;28;20515;-69
2023/04/23 07:36:21;;;;;;;2.97;1.20;;;;;;;20.02;45.80;96836.91;5067814;28;20174;-69
2023/04/23 07:38:47;;;;;;;1.23;1.13;;;;;;;20.31;44.89;96849.66;5080398;28;20881;-69
2023/04/23 07:41:12;;;;;;;1.03;0.93;;;;;;;20.53;44.24;96836.69;5090251;28;20432;-69
2023/04/23 07:43:39;;;;;;;1.20;1.10;;;;;;;20.59;43.76;96841.09;5049893;28;20173;-69
2023/04/23 07:46:06;;;;;;;3.80;1.10;;;;;;;20.80;43.42;96839.81;5053730;28;20225;-70
2023/04/23 07:48:32;;;;;;;1.50;1.30;;;;;;;20.89;43.36;96834.16;5066814;28;20436;-69
2023/04/23 07:50:58;;;;;;;5.70;1.10;;;;;;;20.91;41.88;96834.75;5082233;28;20435;-69
2023/04/23 07:53:23;;;;;;;2.83;1.00;;;;;;;21.11;41.67;96832.59;5083077;28;20428;-69
2023/04/23 07:55:49;;;;;;;1.33;1.23;;;;;;;21.29;41.75;96833.56;5065162;28;20202;-68
2023/04/23 07:58:14;;;;;;;1.80;1.33;;;;;;;21.46;40.67;96825.69;5092757;28;20253;-68
2023/04/23 08:00:40;;;;;;;1.57;1.03;;;;;;;21.61;40.57;96830.59;5082298;28;20258;-69
2023/04/23 08:03:05;;;;;;;2.53;1.20;;;;;;;21.64;40.98;96824.78;5087308;28;20586;-70
2023/04/23 08:05:31;;;;;;;2.23;1.40;;;;;;;21.69;40.94;96827.56;5063982;28;20647;-69
2023/04/23 08:07:56;;;;;;;2.23;1.40;;;;;;;21.77;39.88;96816.53;5081533;28;20660;-69
2023/04/23 08:10:22;;;;;;;2.30;1.40;;;;;;;21.96;40.37;96811.09;5083669;28;20198;-69
2023/04/23 08:12:47;;;;;;;9.20;2.03;;;;;;;21.96;39.38;96808.41;5086158;28;20890;-69
2023/04/23 08:15:13;;;;;;;1.97;1.87;;;;;;;22.05;38.91;96814.19;5093182;28;20234;-69
2023/04/23 08:17:38;;;;;;;1.90;1.80;;;;;;;22.04;39.08;96809.91;5079032;28;20271;-69
2023/04/23 08:20:05;;;;;;;6.10;1.00;;;;;;;21.88;39.21;96809.59;5091736;28;20202;-69
2023/04/23 08:22:31;;;;;;;1.47;1.37;;;;;;;21.71;39.50;96819.34;5072972;28;20181;-69
2023/04/23 08:24:56;;;;;;;1.63;1.53;;;;;;;21.59;39.26;96814.00;5060399;28;20489;-69
2023/04/23 08:27:22;;;;;;;2.40;1.80;;;;;;;21.45;38.24;96818.72;5092985;28;20813;-69
2023/04/23 08:29:47;;;;;;;1.70;1.40;;;;;;;21.27;39.25;96819.66;5083987;28;20282;-70
2023/04/23 08:32:13;;;;;;;3.30;1.40;;;;;;;21.29;39.95;96818.41;5068132;28;20220;-69
2023/04/23 08:34:38;;;;;;;1.10;1.00;;;;;;;21.23;40.34;96805.19;5078162;28;20198;-69
2023/04/23 08:37:03;;;;;;;2.27;1.00;;;;;;;21.22;40.68;96803.56;5083586;28;20182;-69
2023/04/23 08:39:31;;;;;;;1.70;1.10;;;;;;;21.18;40.24;96806.66;5079641;28;20182;-69
2023/04/23 08:42:04;;;;;;;1.30;1.10;;;;;;;21.25;39.76;96811.06;5085313;28;20190;-70
2023/04/23 08:44:30;;;;;;;2.47;1.43;;;;;;;21.36;39.39;96804.94;5052983;28;20408;-69
2023/04/23 08:46:56;;;;;;;1.73;1.10;;;;;;;21.31;39.19;96800.31;5055814;28;20920;-69
2023/04/23 08:49:23;;;;;;;3.73;1.37;;;;;;;21.33;38.88;96803.56;5071534;28;20434;-69
2023/04/23 08:51:51;;;;;;;1.20;1.10;;;;;;;21.30;39.00;96804.00;5077717;28;20446;-70
2023/04/23 08:54:27;;;;;;;1.53;1.43;;;;;;;21.25;39.30;96809.22;5067960;28;20467;-69
2023/04/23 08:56:57;;;;;;;1.93;1.10;;;;;;;21.29;37.81;96802.41;5073488;28;20411;-69
2023/04/23 08:59:23;;;;;;;3.33;1.47;;;;;;;21.28;38.15;96803.44;5091672;28;20491;-69
2023/04/23 09:01:49;;;;;;;1.47;1.30;;;;;;;21.45;38.07;96800.06;5080400;28;20442;-70
2023/04/23 09:04:19;;;;;;;1.77;1.67;;;;;;;21.56;37.79;96793.13;5066271;28;20423;-69
2023/04/23 09:06:44;;;;;;;1.93;1.77;;;;;;;21.73;38.27;96780.75;5081574;28;20649;-69
2023/04/23 09:09:14;;;;;;;1.73;1.63;;;;;;;21.87;37.71;96783.13;5085757;28;20428;-69
2023/04/23 09:11:40;;;;;;;1.37;1.10;;;;;;;21.87;37.74;96783.97;5074039;28;20605;-69
2023/04/23 09:14:06;;;;;;;1.30;0.90;;;;;;;21.92;37.10;96792.06;5081568;28;20488;-70
2023/04/23 09:16:31;;;;;;;1.40;0.90;;;;;;;22.00;36.98;96782.06;5065290;28;20232;-69
2023/04/23 09:18:57;;;;;;;1.20;1.10;;;;;;;21.79;36.93;96777.13;5061684;28;20178;-68
2023/04/23 09:21:23;;;;;;;1.80;1.30;;;;;;;22.06;36.64;96778.44;5063076;28;20222;-69
2023/04/23 09:23:51;;;;;;;1.47;1.10;;;;;;;22.16;36.54;96776.00;5080614;28;20467;-68
2023/04/23 09:26:21;;;;;;;3.03;1.53;;;;;;;21.90;35.47;96769.31;5079828;28;20186;-68
2023/04/23 09:28:50;;;;;;;4.63;1.30;;;;;;;22.05;35.47;96758.19;5075453;28;20428;-69
2023/04/23 09:31:22;;;;;;;2.17;1.20;;;;;;;22.22;35.68;96756.34;5072936;28;20483;-70
2023/04/23 09:33:51;;;;;;;2.10;1.60;;;;;;;22.50;35.78;96752.09;5066125;28;20483;-69
2023/04/23 09:36:19;;;;;;;1.30;1.00;;;;;;;22.69;35.97;96752.69;5085619;28;20459;-69
2023/04/23 09:38:45;;;;;;;1.47;1.10;;;;;;;22.94;34.11;96750.66;5076893;28;20427;-69
2023/04/23 09:41:24;;;;;;;1.30;1.10;;;;;;;23.19;34.08;96752.94;5066092;28;20488;-69
2023/04/23 09:43:52;;;;;;;1.10;0.90;;;;;;;22.78;33.73;96742.41;5091491;28;20260;-69
2023/04/23 09:46:18;;;;;;;2.27;1.40;;;;;;;22.90;33.86;96745.00;5086235;28;20424;-69
2023/04/23 09:48:43;;;;;;;1.60;0.90;;;;;;;23.01;33.57;96735.28;5086418;28;20454;-70
2023/04/23 09:51:12;;;;;;;1.83;1.07;;;;;;;23.29;32.74;96728.25;5092678;28;20304;-70
2023/04/23 09:53:42;;;;;;;2.43;0.93;;;;;;;23.47;32.74;96733.31;5075317;28;20561;-69
2023/04/23 09:56:08;;;;;;;3.53;1.53;;;;;;;23.71;31.57;96725.03;5094395;28;20454;-69
2023/04/23 09:58:34;;;;;;;7.00;1.10;;;;;;;23.86;31.44;96728.97;5062325;28;20785;-69
2023/04/23 10:01:06;;;;;;;1.20;1.07;;;;;;;23.75;30.86;96725.38;5043526;28;20205;-69
2023/04/23 10:03:32;;;;;;;1.10;0.90;;;;;;;24.21;30.47;96728.59;5087075;28;20185;-69
2023/04/23 10:05:57;;;;;;;1.80;0.90;;;;;;;24.38;30.17;96730.38;5092591;28;21068;-69
2023/04/23 10:08:24;;;;;;;2.10;1.13;;;;;;;23.81;30.27;96718.22;5072598;28;20221;-69
2023/04/23 10:10:49;;;;;;;1.80;0.90;;;;;;;23.90;31.13;96708.69;5069202;28;20700;-69
2023/04/23 10:13:16;;;;;;;1.70;1.13;;;;;;;24.33;29.66;96711.59;5094084;28;20521;-68
2023/04/23 10:15:42;;;;;;;1.70;1.07;;;;;;;24.10;28.91;96704.63;5049957;28;20250;-68
2023/04/23 10:18:08;;;;;;;1.00;0.90;;;;;;;24.29;29.72;96699.75;5092192;28;20428;-68
2023/04/23 10:20:34;;;;;;;5.53;1.30;;;;;;;23.99;29.69;96696.50;5073306;28;20485;-70
2023/04/23 10:23:00;;;;;;;1.60;1.23;;;;;;;24.18;29.69;96693.50;5080493;28;20189;-69
2023/04/23 10:25:26;;;;;;;1.10;0.90;;;;;;;23.97;29.59;96692.47;5081636;28;20442;-69
2023/04/23 10:27:54;;;;;;;1.90;1.10;;;;;;;24.04;29.89;96693.91;5085819;28;20427;-69
2023/04/23 10:30:20;;;;;;;1.63;1.00;;;;;;;23.88;30.82;96684.06;5084439;28;20954;-70
2023/04/23 10:32:47;;;;;;;1.50;1.03;;;;;;;23.95;30.89;96690.00;5093233;28;20432;-71
2023/04/23 10:35:13;;;;;;;1.43;1.00;;;;;;;23.64;31.04;96687.00;5073363;28;20485;-70
2023/04/23 10:37:38;;;;;;;1.67;0.93;;;;;;;23.26;32.56;96684.09;5090868;28;20976;-69
2023/04/23 10:40:11;;;;;;;2.27;1.00;;;;;;;23.06;32.74;96676.56;5070500;28;20581;-69
2023/04/23 10:42:40;;;;;;;1.53;1.00;;;;;;;23.37;32.11;96677.03;5046572;28;20892;-69
2023/04/23 10:45:12;;;;;;;2.17;1.00;;;;;;;23.24;32.69;96674.72;5063036;28;20435;-70
2023/04/23 10:47:37;;;;;;;1.20;0.83;;;;;;;23.33;32.86;96673.22;5085552;28;20890;-69
2023/04/23 10:50:19;;;;;;;1.30;1.07;;;;;;;23.36;32.79;96667.41;5082719;28;20431;-69
2023/04/23 10:52:50;;;;;;;1.60;1.50;;;;;;;23.35;33.50;96655.09;5082867;28;20186;-69
2023/04/23 10:55:17;;;;;;;2.63;1.30;;;;;;;23.31;33.62;96653.97;5072984;28;21016;-69
2023/04/23 10:58:06;;;;;;;1.03;0.93;;;;;;;23.16;33.11;96658.03;5068939;28;20435;-69
2023/04/23 11:00:40;;;;;;;1.60;1.50;;;;;;;22.82;33.73;96663.41;5084581;28;20859;-69
2023/04/23 11:03:27;;;;;;;1.80;1.70;;;;;;;22.99;33.26;96663.41;5083085;28;20487;-69
2023/04/23 11:05:53;;;;;;;1.30;1.10;;;;;;;23.11;33.92;96649.94;5079267;28;20934;-70
2023/04/23 11:08:18;;;;;;;2.17;0.90;;;;;;;23.10;33.33;96650.19;5086989;28;20536;-69
2023/04/23 11:10:55;;;;;;;1.17;1.00;;;;;;;22.95;33.05;96645.41;5080918;28;20206;-68
2023/04/23 11:13:25;;;;;;;2.50;0.90;;;;;;;23.09;33.36;96645.91;5084217;28;20178;-68
2023/04/23 11:16:19;;;;;;;1.53;1.00;;;;;;;23.29;33.27;96634.69;5082000;28;20455;-69
2023/04/23 11:19:06;;;;;;;3.33;1.00;;;;;;;23.15;32.78;96634.22;5047948;28;20428;-68
2023/04/23 11:21:53;;;;;;;1.87;0.97;;;;;;;23.40;32.11;96636.44;5063196;28;20449;-69
2023/04/23 11:24:21;;;;;;;1.10;0.87;;;;;;;22.80;32.31;96638.00;5083158;28;20430;-71
2023/04/23 11:26:47;;;;;;;1.37;1.10;;;;;;;22.95;32.61;96632.06;5084852;28;20478;-70
2023/04/23 11:29:14;;;;;;;1.20;0.90;;;;;;;23.23;31.11;96625.00;5062896;28;20942;-69
2023/04/23 11:31:39;;;;;;;1.20;0.90;;;;;;;23.12;32.04;96624.81;5061419;28;20525;-69